createdAt,value
2022-08-10T00:00:49.468Z,89.21
2022-08-10T00:01:51.257Z,89.26
2022-08-10T00:02:49.450Z,89.77
2022-08-10T00:03:49.475Z,89.11
2022-08-10T00:04:49.447Z,89.81
2022-08-10T00:05:52.399Z,89.72
2022-08-10T00:06:49.423Z,89.47
2022-08-10T00:07:49.414Z,89.81
2022-08-10T00:08:49.432Z,89.61
2022-08-10T00:09:50.715Z,90.22
2022-08-10T00:10:49.392Z,91.64
2022-08-10T00:11:49.388Z,91.34
2022-08-10T00:12:54.779Z,91.85
2022-08-10T00:13:50.390Z,91.44
2022-08-10T00:14:49.357Z,90.62
2022-08-10T00:15:53.918Z,90.32
2022-08-10T00:16:49.341Z,91.34
2022-08-10T00:17:49.330Z,90.93
2022-08-10T00:18:49.348Z,91.13
2022-08-10T00:20:04.128Z,91.24
2022-08-10T00:20:50.305Z,90.93
2022-08-10T00:21:49.295Z,90.83
2022-08-10T00:22:52.912Z,91.48
2022-08-10T00:23:50.310Z,91.58
2022-08-10T00:24:49.277Z,91.38
2022-08-10T00:25:49.264Z,91.68
2022-08-10T00:28:00.745Z,91.99
2022-08-10T00:28:02.894Z,91.58
2022-08-10T00:28:50.277Z,91.38
2022-08-10T00:29:49.234Z,91.89
2022-08-10T00:30:49.217Z,92.03
2022-08-10T00:31:58.710Z,91.93
2022-08-10T00:32:50.203Z,91.89
2022-08-10T00:33:49.221Z,91.28
2022-08-10T00:34:49.193Z,91.42
2022-08-10T00:35:49.173Z,91.99
2022-08-10T00:36:49.165Z,91.99
2022-08-10T00:37:56.213Z,92.24
2022-08-10T00:38:50.176Z,91.93
2022-08-10T00:39:49.185Z,92.13
2022-08-10T00:40:49.128Z,91.63
2022-08-10T00:42:02.296Z,91.02
2022-08-10T00:42:50.109Z,92.44
2022-08-10T00:43:49.136Z,92.44
2022-08-10T00:44:49.103Z,92.24
2022-08-10T00:46:21.628Z,93.05
2022-08-10T00:46:49.081Z,94.06
2022-08-10T00:47:49.080Z,93.35
2022-08-10T00:49:00.369Z,92.84
2022-08-10T00:49:50.055Z,92.89
2022-08-10T00:50:49.041Z,92.54
2022-08-10T00:51:49.056Z,93.19
2022-08-10T00:52:49.035Z,92.48
2022-08-10T00:53:49.054Z,92.74
2022-08-10T00:54:49.017Z,92.84
2022-08-10T00:57:14.270Z,92.99
2022-08-10T00:57:16.490Z,92.84
2022-08-10T00:57:54.855Z,92.99
2022-08-10T00:58:50.012Z,92.44
2022-08-10T00:59:57.719Z,91.87
2022-08-10T01:00:49.967Z,92.58
2022-08-10T01:02:09.376Z,93.29
2022-08-10T01:02:50.020Z,93.19
2022-08-10T01:04:54.239Z,92.24
2022-08-10T01:05:00.772Z,91.63
2022-08-10T01:05:51.285Z,92.84
2022-08-10T01:06:48.915Z,91.63
2022-08-10T01:07:48.911Z,92.24
2022-08-10T01:08:48.932Z,91.52
2022-08-10T01:09:57.073Z,91.42
2022-08-10T01:10:49.890Z,92.13
2022-08-10T01:12:38.597Z,92.58
2022-08-10T01:12:50.036Z,92.28
2022-08-10T01:13:48.884Z,91.73
2022-08-10T01:14:48.844Z,92.38
2022-08-10T01:15:48.826Z,92.28
2022-08-10T01:16:49.825Z,92.24
2022-08-10T01:17:50.581Z,92.07
2022-08-10T01:18:48.851Z,92.38
2022-08-10T01:19:48.803Z,92.89
2022-08-10T01:20:48.796Z,93.40
2022-08-10T01:21:56.740Z,94.21
2022-08-10T01:22:49.769Z,94.10
2022-08-10T01:23:48.762Z,93.84
2022-08-10T01:24:48.789Z,94.31
2022-08-10T01:26:11.743Z,93.80
2022-08-10T01:26:49.740Z,93.74
2022-08-10T01:27:48.751Z,93.70
2022-08-10T01:28:48.755Z,93.33
2022-08-10T01:29:48.734Z,93.44
2022-08-10T01:30:48.721Z,93.44
2022-08-10T01:31:48.699Z,93.74
2022-08-10T01:32:48.688Z,94.05
2022-08-10T01:34:02.465Z,93.99
2022-08-10T01:34:49.669Z,94.09
2022-08-10T01:35:48.670Z,94.20
2022-08-10T01:36:48.651Z,94.70
2022-08-10T01:37:52.336Z,94.20
2022-08-10T01:38:48.682Z,93.89
2022-08-10T01:39:48.692Z,94.80
2022-08-10T01:40:48.635Z,94.20
2022-08-10T01:41:48.614Z,94.90
2022-08-10T01:42:48.607Z,94.80
2022-08-10T01:43:48.627Z,94.70
2022-08-10T01:44:48.585Z,94.50
2022-08-10T01:45:48.580Z,94.09
2022-08-10T01:46:48.576Z,94.90
2022-08-10T01:47:48.567Z,94.09
2022-08-10T01:48:48.584Z,94.40
2022-08-10T01:49:48.573Z,94.60
2022-08-10T01:50:59.984Z,94.90
2022-08-10T01:51:49.528Z,94.20
2022-08-10T01:52:48.537Z,95.21
2022-08-10T01:53:48.560Z,93.68
2022-08-10T01:54:48.512Z,93.99
2022-08-10T01:55:48.500Z,94.50
2022-08-10T01:56:48.497Z,94.40
2022-08-10T01:57:48.482Z,94.90
2022-08-10T01:58:48.506Z,93.64
2022-08-10T01:59:54.562Z,94.15
2022-08-10T02:00:49.523Z,94.29
2022-08-10T02:01:48.479Z,94.50
2022-08-10T02:02:48.453Z,94.09
2022-08-10T02:04:05.330Z,94.09
2022-08-10T02:04:49.417Z,94.50
2022-08-10T02:05:48.516Z,94.45
2022-08-10T02:06:48.404Z,93.99
2022-08-10T02:07:48.395Z,94.09
2022-08-10T02:08:48.412Z,94.29
2022-08-10T02:09:49.373Z,94.70
2022-08-10T02:10:48.372Z,95.10
2022-08-10T02:12:05.645Z,94.09
2022-08-10T02:12:49.346Z,94.09
2022-08-10T02:13:48.383Z,94.09
2022-08-10T02:14:48.336Z,94.40
2022-08-10T02:16:02.283Z,94.74
2022-08-10T02:16:49.315Z,94.80
2022-08-10T02:17:57.097Z,95.41
2022-08-10T02:18:49.330Z,95.36
2022-08-10T02:19:48.288Z,95.15
2022-08-10T02:20:48.339Z,94.74
2022-08-10T02:22:35.381Z,95.46
2022-08-10T02:22:49.445Z,95.15
2022-08-10T02:23:59.377Z,94.44
2022-08-10T02:24:49.280Z,94.74
2022-08-10T02:25:48.308Z,95.36
2022-08-10T02:26:48.242Z,95.86
2022-08-10T02:27:49.217Z,95.56
2022-08-10T02:28:48.218Z,95.36
2022-08-10T02:29:49.110Z,95.46
2022-08-10T02:30:48.199Z,94.95
2022-08-10T02:31:49.626Z,95.46
2022-08-10T02:32:49.633Z,95.15
2022-08-10T02:33:57.451Z,95.97
2022-08-10T02:34:49.189Z,95.21
2022-08-10T02:35:54.193Z,96.02
2022-08-10T02:36:49.152Z,95.92
2022-08-10T02:37:48.142Z,95.21
2022-08-10T02:38:58.408Z,96.27
2022-08-10T02:39:49.158Z,95.31
2022-08-10T02:45:02.253Z,94.80
2022-08-10T02:45:14.972Z,94.95
2022-08-10T02:45:18.652Z,96.31
2022-08-10T02:45:22.801Z,96.37
2022-08-10T02:45:23.510Z,96.37
2022-08-10T02:45:50.081Z,96.07
2022-08-10T02:46:48.072Z,96.27
2022-08-10T02:47:52.121Z,96.42
2022-08-10T02:48:48.086Z,96.31
2022-08-10T02:49:48.072Z,96.07
2022-08-10T02:50:48.028Z,96.52
2022-08-10T02:52:07.104Z,96.01
2022-08-10T02:52:49.015Z,96.72
2022-08-10T02:53:55.169Z,96.72
2022-08-10T02:54:49.030Z,96.52
2022-08-10T02:55:47.990Z,96.92
2022-08-10T02:56:48.006Z,96.31
2022-08-10T02:58:17.161Z,96.72
2022-08-10T02:58:48.965Z,96.11
2022-08-10T02:59:48.001Z,95.85
2022-08-10T03:00:47.984Z,96.26
2022-08-10T03:01:47.942Z,97.17
2022-08-10T03:02:47.930Z,97.28
2022-08-10T03:03:47.938Z,96.67
2022-08-10T03:04:55.511Z,96.87
2022-08-10T03:05:48.907Z,97.03
2022-08-10T03:06:47.903Z,96.52
2022-08-10T03:07:47.885Z,96.11
2022-08-10T03:08:47.906Z,96.62
2022-08-10T03:09:47.879Z,96.06
2022-08-10T03:10:47.906Z,96.92
2022-08-10T03:12:35.818Z,96.87
2022-08-10T03:12:49.202Z,96.06
2022-08-10T03:13:59.781Z,96.87
2022-08-10T03:14:49.869Z,97.02
2022-08-10T03:15:47.829Z,97.17
2022-08-10T03:16:47.813Z,97.07
2022-08-10T03:17:57.958Z,96.87
2022-08-10T03:18:48.795Z,97.83
2022-08-10T03:20:35.560Z,98.65
2022-08-10T03:20:48.779Z,97.73
2022-08-10T03:21:48.997Z,97.73
2022-08-10T03:22:47.765Z,97.42
2022-08-10T03:23:47.776Z,97.42
2022-08-10T03:24:47.777Z,97.12
2022-08-10T03:25:53.817Z,97.12
2022-08-10T03:26:48.746Z,97.63
2022-08-10T03:27:47.722Z,98.65
2022-08-10T03:28:47.713Z,98.24
2022-08-10T03:30:29.498Z,98.54
2022-08-10T03:30:48.701Z,98.95
2022-08-10T03:31:47.692Z,99.05
2022-08-10T03:32:47.676Z,98.65
2022-08-10T03:33:47.667Z,97.89
2022-08-10T03:34:47.689Z,97.89
2022-08-10T03:36:40.241Z,97.99
2022-08-10T03:36:48.692Z,97.07
2022-08-10T03:37:47.637Z,97.02
2022-08-10T03:38:47.646Z,97.32
2022-08-10T03:39:47.715Z,97.32
2022-08-10T03:40:47.610Z,97.32
2022-08-10T03:41:47.809Z,97.78
2022-08-10T03:42:48.615Z,98.44
2022-08-10T03:43:47.761Z,98.28
2022-08-10T03:44:50.530Z,98.65
2022-08-10T03:45:55.321Z,98.75
2022-08-10T03:46:48.563Z,98.54
2022-08-10T03:47:47.558Z,98.34
2022-08-10T03:48:49.342Z,97.93
2022-08-10T03:49:47.570Z,98.34
2022-08-10T03:50:51.225Z,99.05
2022-08-10T03:51:47.526Z,98.44
2022-08-10T03:52:47.519Z,98.24
2022-08-10T03:54:02.893Z,98.65
2022-08-10T03:54:48.611Z,98.59
2022-08-10T03:56:30.587Z,98.24
2022-08-10T03:56:48.496Z,98.34
2022-08-10T03:57:49.738Z,98.69
2022-08-10T03:58:47.467Z,98.59
2022-08-10T03:59:47.480Z,98.59
2022-08-10T04:00:47.513Z,99.00
2022-08-10T04:02:46.664Z,98.59
2022-08-10T04:02:48.516Z,98.79
2022-08-10T04:03:48.456Z,99.30
2022-08-10T04:04:48.445Z,99.10
2022-08-10T04:05:47.434Z,99.10
2022-08-10T04:06:47.406Z,99.10
2022-08-10T04:07:47.384Z,99.00
2022-08-10T04:08:47.374Z,99.00
2022-08-10T04:09:54.537Z,99.00
2022-08-10T04:10:48.363Z,99.00
2022-08-10T04:11:47.373Z,99.71
2022-08-10T04:12:47.343Z,99.46
2022-08-10T04:13:47.342Z,98.85
2022-08-10T04:14:51.407Z,99.16
2022-08-10T04:15:48.323Z,99.16
2022-08-10T04:16:47.333Z,98.54
2022-08-10T04:18:00.186Z,98.54
2022-08-10T04:18:48.294Z,97.73
2022-08-10T04:19:47.333Z,97.93
2022-08-10T04:20:47.282Z,98.60
2022-08-10T04:21:47.267Z,98.39
2022-08-10T04:22:47.307Z,98.09
2022-08-10T04:23:52.555Z,97.44
2022-08-10T04:24:49.310Z,96.37
2022-08-10T04:25:48.236Z,95.86
2022-08-10T04:26:47.233Z,96.27
2022-08-10T04:27:47.219Z,95.31
2022-08-10T04:28:47.228Z,95.26
2022-08-10T04:29:47.248Z,95.06
2022-08-10T04:30:47.193Z,94.41
2022-08-10T04:31:47.188Z,93.70
2022-08-10T04:32:47.184Z,93.35
2022-08-10T04:33:47.168Z,92.84
2022-08-10T04:34:47.195Z,92.40
2022-08-10T04:35:47.179Z,91.58
2022-08-10T04:36:47.147Z,90.93
2022-08-10T04:37:47.822Z,90.83
2022-08-10T04:38:47.127Z,90.89
2022-08-10T04:39:47.192Z,89.63
2022-08-10T04:40:47.109Z,88.82
2022-08-10T04:41:47.560Z,88.51
2022-08-10T04:42:47.099Z,88.78
2022-08-10T04:43:47.084Z,88.31
2022-08-10T04:44:47.110Z,88.31
2022-08-10T04:45:48.292Z,88.07
2022-08-10T04:46:58.099Z,88.43
2022-08-10T04:47:57.257Z,87.79
2022-08-10T04:48:59.565Z,86.02
2022-08-10T04:49:55.026Z,85.08
2022-08-10T04:50:48.906Z,84.87
2022-08-10T04:51:47.038Z,85.08
2022-08-10T04:52:47.024Z,84.23
2022-08-10T04:54:05.721Z,83.07
2022-08-10T04:54:48.027Z,82.57
2022-08-10T04:55:46.990Z,83.01
2022-08-10T04:56:46.983Z,82.78
2022-08-10T04:57:46.973Z,82.87
2022-08-10T04:58:46.961Z,82.73
2022-08-10T04:59:47.000Z,82.57
2022-08-10T05:00:46.976Z,82.33
2022-08-10T05:02:30.271Z,81.59
2022-08-10T05:02:47.944Z,80.84
2022-08-10T05:04:34.973Z,80.33
2022-08-10T05:04:47.933Z,81.68
2022-08-10T05:05:46.900Z,80.88
2022-08-10T05:06:46.897Z,81.68
2022-08-10T05:07:54.237Z,81.28
2022-08-10T05:08:47.869Z,81.73
2022-08-10T05:10:01.517Z,81.62
2022-08-10T05:10:47.881Z,81.82
2022-08-10T05:11:46.851Z,80.88
2022-08-10T05:12:46.837Z,80.10
2022-08-10T05:13:46.831Z,80.00
2022-08-10T05:14:46.855Z,79.60
2022-08-10T05:15:46.815Z,78.61
2022-08-10T05:16:46.802Z,78.38
2022-08-10T05:18:04.599Z,77.95
2022-08-10T05:18:47.786Z,78.41
2022-08-10T05:20:05.034Z,78.91
2022-08-10T05:20:50.217Z,78.31
2022-08-10T05:22:03.207Z,78.21
2022-08-10T05:22:47.766Z,78.17
2022-08-10T05:23:46.742Z,78.07
2022-08-10T05:24:46.742Z,77.97
2022-08-10T05:25:46.758Z,78.07
2022-08-10T05:26:55.204Z,78.35
2022-08-10T05:27:47.707Z,78.65
2022-08-10T05:28:46.738Z,78.65
2022-08-10T05:29:46.693Z,79.22
2022-08-10T05:30:47.711Z,78.91
2022-08-10T05:31:46.693Z,78.85
2022-08-10T05:32:58.516Z,78.51
2022-08-10T05:33:47.657Z,78.51
2022-08-10T05:34:46.654Z,78.65
2022-08-10T05:35:56.900Z,78.61
2022-08-10T05:36:47.633Z,78.67
2022-08-10T05:38:09.422Z,77.27
2022-08-10T05:38:47.615Z,76.29
2022-08-10T05:39:46.675Z,76.69
2022-08-10T05:40:48.095Z,76.39
2022-08-10T05:41:51.053Z,75.85
2022-08-10T05:42:48.580Z,75.25
2022-08-10T05:43:46.577Z,76.19
2022-08-10T05:44:46.581Z,75.65
2022-08-10T05:46:19.849Z,76.05
2022-08-10T05:46:47.540Z,75.25
2022-08-10T05:48:56.192Z,76.05
2022-08-10T05:48:59.402Z,74.71
2022-08-10T05:49:47.543Z,73.94
2022-08-10T05:50:46.561Z,73.40
2022-08-10T05:51:46.514Z,73.36
2022-08-10T05:52:46.499Z,72.47
2022-08-10T05:54:02.337Z,71.43
2022-08-10T05:54:47.480Z,71.23
2022-08-10T05:55:46.525Z,71.73
2022-08-10T05:56:53.450Z,71.36
2022-08-10T05:57:47.454Z,72.74
2022-08-10T05:58:46.449Z,74.54
2022-08-10T06:00:29.394Z,73.80
2022-08-10T06:00:49.710Z,72.70
2022-08-10T06:02:30.258Z,72.03
2022-08-10T06:02:47.928Z,71.50
2022-08-10T06:03:46.406Z,71.39
2022-08-10T06:04:46.396Z,71.16
2022-08-10T06:05:46.426Z,70.09
2022-08-10T06:06:46.380Z,69.26
2022-08-10T06:07:46.388Z,68.10
2022-08-10T06:08:46.367Z,67.60
2022-08-10T06:09:59.916Z,67.60
2022-08-10T06:12:23.274Z,67.43
2022-08-10T06:12:28.262Z,68.99
2022-08-10T06:12:55.466Z,68.16
2022-08-10T06:14:13.121Z,67.53
2022-08-10T06:14:51.469Z,67.50
2022-08-10T06:15:52.149Z,66.07
2022-08-10T06:16:47.294Z,65.41
2022-08-10T06:17:46.286Z,66.00
2022-08-10T06:18:47.280Z,65.67
2022-08-10T06:19:46.275Z,65.21
2022-08-10T06:20:46.259Z,64.39
2022-08-10T06:22:00.639Z,63.60
2022-08-10T06:22:47.289Z,62.50
2022-08-10T06:23:46.236Z,62.50
2022-08-10T06:25:12.315Z,61.38
2022-08-10T06:26:12.269Z,60.70
2022-08-10T06:26:48.243Z,59.70
2022-08-10T06:27:46.212Z,57.62
2022-08-10T06:29:02.165Z,57.59
2022-08-10T06:29:47.184Z,56.60
2022-08-10T06:30:46.186Z,58.22
2022-08-10T06:31:48.548Z,56.83
2022-08-10T06:32:46.164Z,57.42
2022-08-10T06:33:46.147Z,58.51
2022-08-10T06:34:47.152Z,56.13
2022-08-10T06:35:46.203Z,56.70
2022-08-10T06:36:46.134Z,55.85
2022-08-10T06:37:50.573Z,54.14
2022-08-10T06:38:47.110Z,52.12
2022-08-10T06:39:46.135Z,53.30
2022-08-10T06:40:46.120Z,53.20
2022-08-10T06:42:14.644Z,52.41
2022-08-10T06:42:47.091Z,53.11
2022-08-10T06:43:46.066Z,53.82
2022-08-10T06:44:46.086Z,53.28
2022-08-10T06:45:46.080Z,54.17
2022-08-10T06:47:22.747Z,53.82
2022-08-10T06:47:47.034Z,53.33
2022-08-10T06:48:46.036Z,54.35
2022-08-10T06:49:46.024Z,54.05
2022-08-10T06:50:58.004Z,52.86
2022-08-10T06:51:57.553Z,53.92
2022-08-10T06:52:46.999Z,52.46
2022-08-10T06:53:52.231Z,52.93
2022-08-10T06:54:46.976Z,54.74
2022-08-10T06:55:55.653Z,53.48
2022-08-10T06:57:08.142Z,55.04
2022-08-10T06:58:00.065Z,56.81
2022-08-10T06:58:46.950Z,55.44
2022-08-10T06:59:45.942Z,55.27
2022-08-10T07:00:46.016Z,56.49
2022-08-10T07:01:50.882Z,55.09
2022-08-10T07:02:46.919Z,54.89
2022-08-10T07:03:45.911Z,54.07
2022-08-10T07:04:45.904Z,54.39
2022-08-10T07:05:50.474Z,55.19
2022-08-10T07:06:47.913Z,55.02
2022-08-10T07:07:45.881Z,55.71
2022-08-10T07:08:45.877Z,54.39
2022-08-10T07:09:45.860Z,54.69
2022-08-10T07:10:46.693Z,53.85
2022-08-10T07:11:45.903Z,51.94
2022-08-10T07:12:45.837Z,53.11
2022-08-10T07:14:16.147Z,52.69
2022-08-10T07:14:46.816Z,51.75
2022-08-10T07:15:59.130Z,52.04
2022-08-10T07:16:46.847Z,52.78
2022-08-10T07:17:45.778Z,53.00
2022-08-10T07:18:46.781Z,52.98
2022-08-10T07:19:49.903Z,51.37
2022-08-10T07:20:46.802Z,52.39
2022-08-10T07:21:45.811Z,51.47
2022-08-10T07:23:22.801Z,51.47
2022-08-10T07:23:56.790Z,51.15
2022-08-10T07:24:46.750Z,51.30
2022-08-10T07:25:45.742Z,50.34
2022-08-10T07:26:45.760Z,50.63
2022-08-10T07:27:59.767Z,51.45
2022-08-10T07:28:48.246Z,50.93
2022-08-10T07:29:53.840Z,50.31
2022-08-10T07:30:46.684Z,50.93
2022-08-10T07:31:57.036Z,51.23
2022-08-10T07:32:46.671Z,50.41
2022-08-10T07:33:45.656Z,52.39
2022-08-10T07:34:45.651Z,51.79
2022-08-10T07:35:45.650Z,52.12
2022-08-10T07:36:45.703Z,53.50
2022-08-10T07:37:45.635Z,51.67
2022-08-10T07:38:45.626Z,51.70
2022-08-10T07:40:02.645Z,53.18
2022-08-10T07:40:46.614Z,51.23
2022-08-10T07:41:45.630Z,51.23
2022-08-10T07:42:46.157Z,49.50
2022-08-10T07:43:46.591Z,50.16
2022-08-10T07:44:45.582Z,50.31
2022-08-10T07:45:45.579Z,50.88
2022-08-10T07:46:45.593Z,50.29
2022-08-10T07:47:46.043Z,49.77
2022-08-10T07:48:46.547Z,49.28
2022-08-10T07:49:45.542Z,49.48
2022-08-10T07:50:45.531Z,48.64
2022-08-10T07:51:45.551Z,49.50
2022-08-10T07:52:46.519Z,50.14
2022-08-10T07:53:45.510Z,50.63
2022-08-10T07:54:45.510Z,49.57
2022-08-10T07:56:01.485Z,48.54
2022-08-10T07:56:49.271Z,48.37
2022-08-10T07:57:46.484Z,48.14
2022-08-10T07:58:46.346Z,47.97
2022-08-10T07:59:46.484Z,50.21
2022-08-10T08:00:45.453Z,50.07
2022-08-10T08:01:45.512Z,50.16
2022-08-10T08:02:45.441Z,49.79
2022-08-10T08:03:45.442Z,49.90
2022-08-10T08:04:46.433Z,46.80
2022-08-10T08:05:58.285Z,48.86
2022-08-10T08:06:46.436Z,48.30
2022-08-10T08:07:45.447Z,47.47
2022-08-10T08:08:45.399Z,46.68
2022-08-10T08:09:57.697Z,48.07
2022-08-10T08:10:46.374Z,49.23
2022-08-10T08:11:45.404Z,47.69
2022-08-10T08:12:45.381Z,47.49
2022-08-10T08:13:45.364Z,48.57
2022-08-10T08:14:45.351Z,47.44
2022-08-10T08:16:18.487Z,49.18
2022-08-10T08:16:46.355Z,49.65
2022-08-10T08:17:45.332Z,47.51
2022-08-10T08:19:03.866Z,48.20
2022-08-10T08:19:55.520Z,46.66
2022-08-10T08:20:46.309Z,45.89
2022-08-10T08:24:06.310Z,46.97
2022-08-10T08:24:09.034Z,46.95
2022-08-10T08:24:16.134Z,46.85
2022-08-10T08:24:46.278Z,47.31
2022-08-10T08:25:45.267Z,48.27
2022-08-10T08:26:49.377Z,45.53
2022-08-10T08:27:47.483Z,44.88
2022-08-10T08:28:45.242Z,44.46
2022-08-10T08:29:45.230Z,45.80
2022-08-10T08:30:48.787Z,46.46
2022-08-10T08:32:01.374Z,46.20
2022-08-10T08:32:46.215Z,44.13
2022-08-10T08:33:45.203Z,44.12
2022-08-10T08:34:45.201Z,44.53
2022-08-10T08:35:45.189Z,43.92
2022-08-10T08:36:45.231Z,45.16
2022-08-10T08:38:31.644Z,45.12
2022-08-10T08:38:46.169Z,45.55
2022-08-10T08:39:47.236Z,45.28
2022-08-10T08:40:45.171Z,44.23
2022-08-10T08:41:45.169Z,44.19
2022-08-10T08:42:45.148Z,43.24
2022-08-10T08:43:45.144Z,43.24
2022-08-10T08:44:45.125Z,41.89
2022-08-10T08:45:58.677Z,43.52
2022-08-10T08:46:47.735Z,43.60
2022-08-10T08:48:04.148Z,44.03
2022-08-10T08:48:46.101Z,42.76
2022-08-10T08:50:08.478Z,41.50
2022-08-10T08:50:46.080Z,41.91
2022-08-10T08:52:12.388Z,39.61
2022-08-10T08:52:46.078Z,40.60
2022-08-10T08:54:03.372Z,40.80
2022-08-10T08:54:46.046Z,41.93
2022-08-10T08:56:03.990Z,41.96
2022-08-10T08:56:50.175Z,42.01
2022-08-10T08:57:49.788Z,40.70
2022-08-10T08:58:46.033Z,41.49
2022-08-10T08:59:45.031Z,41.99
2022-08-10T09:00:45.014Z,42.46
2022-08-10T09:01:45.062Z,41.76
2022-08-10T09:02:45.021Z,42.40
2022-08-10T09:03:45.988Z,40.39
2022-08-10T09:04:44.975Z,39.57
2022-08-10T09:05:58.417Z,39.16
2022-08-10T09:06:45.975Z,40.50
2022-08-10T09:08:02.059Z,41.31
2022-08-10T09:08:45.954Z,41.21
2022-08-10T09:09:44.979Z,39.33
2022-08-10T09:10:44.946Z,40.76
2022-08-10T09:11:44.938Z,40.68
2022-08-10T09:12:44.944Z,41.52
2022-08-10T09:13:44.928Z,41.62
2022-08-10T09:14:44.959Z,41.82
2022-08-10T09:15:44.922Z,41.74
2022-08-10T09:16:44.901Z,41.74
2022-08-10T09:17:44.892Z,41.21
2022-08-10T09:18:44.887Z,40.29
2022-08-10T09:19:44.909Z,40.27
2022-08-10T09:20:44.892Z,39.55
2022-08-10T09:22:12.920Z,38.12
2022-08-10T09:22:45.862Z,41.50
2022-08-10T09:24:01.956Z,40.31
2022-08-10T09:24:45.874Z,39.29
2022-08-10T09:25:44.849Z,39.86
2022-08-10T09:26:44.862Z,39.36
2022-08-10T09:27:44.831Z,39.15
2022-08-10T09:28:44.827Z,40.80
2022-08-10T09:29:45.849Z,41.84
2022-08-10T09:31:03.600Z,42.11
2022-08-10T09:31:55.884Z,41.37
2022-08-10T09:36:14.250Z,41.90
2022-08-10T09:36:22.618Z,41.03
2022-08-10T09:36:22.796Z,41.02
2022-08-10T09:36:23.689Z,41.02
2022-08-10T09:36:45.769Z,41.71
2022-08-10T09:38:01.810Z,40.84
2022-08-10T09:38:45.760Z,41.67
2022-08-10T09:40:06.587Z,40.76
2022-08-10T09:40:59.862Z,40.78
2022-08-10T09:41:45.785Z,42.18
2022-08-10T09:42:49.755Z,40.92
2022-08-10T09:43:45.722Z,40.78
2022-08-10T09:44:58.151Z,41.03
2022-08-10T09:45:45.712Z,40.45
2022-08-10T09:46:44.707Z,40.76
2022-08-10T09:48:02.201Z,38.86
2022-08-10T09:48:45.688Z,39.59
2022-08-10T09:50:04.200Z,39.95
2022-08-10T09:51:47.794Z,40.76
2022-08-10T09:52:45.670Z,41.35
2022-08-10T09:53:44.654Z,39.66
2022-08-10T09:54:44.690Z,39.33
2022-08-10T09:56:17.847Z,39.27
2022-08-10T09:56:45.655Z,38.38
2022-08-10T09:57:46.293Z,37.75
2022-08-10T09:58:45.620Z,35.88
2022-08-10T10:00:01.316Z,38.30
2022-08-10T10:00:45.619Z,38.16
2022-08-10T10:02:02.440Z,38.38
2022-08-10T10:02:45.649Z,37.70
2022-08-10T10:03:44.673Z,38.32
2022-08-10T10:04:44.577Z,39.94
2022-08-10T10:05:50.525Z,39.09
2022-08-10T10:06:45.560Z,41.08
2022-08-10T10:07:44.554Z,39.54
2022-08-10T10:08:44.545Z,38.57
2022-08-10T10:09:44.573Z,36.84
2022-08-10T10:10:47.714Z,37.71
2022-08-10T10:11:44.525Z,39.33
2022-08-10T10:12:44.518Z,40.29
2022-08-10T10:14:02.596Z,41.68
2022-08-10T10:14:45.550Z,38.48
2022-08-10T10:15:44.493Z,38.30
2022-08-10T10:16:44.493Z,38.61
2022-08-10T10:17:44.491Z,38.84
2022-08-10T10:18:44.487Z,39.23
2022-08-10T10:19:44.507Z,38.49
2022-08-10T10:20:44.480Z,37.77
2022-08-10T10:21:52.377Z,38.49
2022-08-10T10:22:45.504Z,37.48
2022-08-10T10:23:59.872Z,37.46
2022-08-10T10:24:46.465Z,37.77
2022-08-10T10:25:51.478Z,36.47
2022-08-10T10:26:45.437Z,38.75
2022-08-10T10:27:44.422Z,38.34
2022-08-10T10:29:19.737Z,36.52
2022-08-10T10:29:57.342Z,37.29
2022-08-10T10:30:46.396Z,36.82
2022-08-10T10:31:44.397Z,36.72
2022-08-10T10:32:44.386Z,36.34
2022-08-10T10:33:44.394Z,37.21
2022-08-10T10:34:44.400Z,35.92
2022-08-10T10:35:44.364Z,37.27
2022-08-10T10:36:44.350Z,36.84
2022-08-10T10:38:01.319Z,35.55
2022-08-10T10:38:45.331Z,37.98
2022-08-10T10:39:44.414Z,37.61
2022-08-10T10:40:44.339Z,39.90
2022-08-10T10:42:03.840Z,38.78
2022-08-10T10:42:45.877Z,38.57
2022-08-10T10:43:45.310Z,36.08
2022-08-10T10:44:44.342Z,35.91
2022-08-10T10:45:50.118Z,35.65
2022-08-10T10:46:45.292Z,36.94
2022-08-10T10:47:44.289Z,35.09
2022-08-10T10:48:44.293Z,34.42
2022-08-10T10:49:44.310Z,33.28
2022-08-10T10:50:44.260Z,33.06
2022-08-10T10:51:44.262Z,33.04
2022-08-10T10:52:44.245Z,31.68
2022-08-10T10:53:44.247Z,33.07
2022-08-10T10:54:44.237Z,35.31
2022-08-10T10:56:15.516Z,35.69
2022-08-10T10:56:45.225Z,35.53
2022-08-10T10:57:58.535Z,32.59
2022-08-10T10:58:45.207Z,33.28
2022-08-10T10:59:56.669Z,34.50
2022-08-10T11:00:45.197Z,34.81
2022-08-10T11:01:44.256Z,34.88
2022-08-10T11:02:44.176Z,33.02
2022-08-10T11:03:44.170Z,32.00
2022-08-10T11:04:44.205Z,32.24
2022-08-10T11:05:44.163Z,32.65
2022-08-10T11:06:44.154Z,33.96
2022-08-10T11:07:45.898Z,36.07
2022-08-10T11:08:45.156Z,37.08
2022-08-10T11:10:05.305Z,36.94
2022-08-10T11:10:47.522Z,35.16
2022-08-10T11:12:01.941Z,35.17
2022-08-10T11:12:46.971Z,35.40
2022-08-10T11:14:24.551Z,35.19
2022-08-10T11:14:45.131Z,35.92
2022-08-10T11:15:47.648Z,34.50
2022-08-10T11:16:44.099Z,32.81
2022-08-10T11:17:44.087Z,32.24
2022-08-10T11:18:44.081Z,32.24
2022-08-10T11:20:02.054Z,30.77
2022-08-10T11:20:45.064Z,31.53
2022-08-10T11:21:44.066Z,32.62
2022-08-10T11:22:44.059Z,34.88
2022-08-10T11:23:44.054Z,35.16
2022-08-10T11:24:49.851Z,35.55
2022-08-10T11:25:45.037Z,35.85
2022-08-10T11:26:44.043Z,36.51
2022-08-10T11:27:44.019Z,35.16
2022-08-10T11:28:44.015Z,35.93
2022-08-10T11:29:49.966Z,37.08
2022-08-10T11:30:45.995Z,37.57
2022-08-10T11:31:43.999Z,36.31
2022-08-10T11:32:43.989Z,35.67
2022-08-10T11:34:03.953Z,35.10
2022-08-10T11:34:48.674Z,36.00
2022-08-10T11:35:44.967Z,36.33
2022-08-10T11:36:43.983Z,37.83
2022-08-10T11:38:33.031Z,35.87
2022-08-10T11:39:11.228Z,35.55
2022-08-10T11:40:12.519Z,34.77
2022-08-10T11:40:43.931Z,36.13
2022-08-10T11:42:08.885Z,35.08
2022-08-10T11:43:06.762Z,33.02
2022-08-10T11:44:09.482Z,33.65
2022-08-10T11:44:49.349Z,33.53
2022-08-10T11:45:51.505Z,33.43
2022-08-10T11:46:44.902Z,33.18
2022-08-10T11:47:43.883Z,35.07
2022-08-10T11:48:53.180Z,35.04
2022-08-10T11:49:44.906Z,34.16
2022-08-10T11:50:43.866Z,34.67
2022-08-10T11:51:43.858Z,35.69
2022-08-10T11:52:44.841Z,36.32
2022-08-10T11:53:44.855Z,35.73
2022-08-10T11:54:43.838Z,35.32
2022-08-10T11:55:43.864Z,35.03
2022-08-10T11:56:43.833Z,34.81
2022-08-10T11:57:54.093Z,34.83
2022-08-10T11:58:44.807Z,36.04
2022-08-10T11:59:43.808Z,37.33
2022-08-10T12:00:43.834Z,36.41
2022-08-10T12:01:43.790Z,35.21
2022-08-10T12:02:43.816Z,36.22
2022-08-10T12:03:43.795Z,36.61
2022-08-10T12:04:43.776Z,35.84
2022-08-10T12:05:53.750Z,34.81
2022-08-10T12:06:57.808Z,33.53
2022-08-10T12:10:03.892Z,32.47
2022-08-10T12:10:06.815Z,32.52
2022-08-10T12:10:11.204Z,33.53
2022-08-10T12:10:44.757Z,33.80
2022-08-10T12:11:43.728Z,34.41
2022-08-10T12:12:43.725Z,33.40
2022-08-10T12:13:58.400Z,33.73
2022-08-10T12:14:45.734Z,33.02
2022-08-10T12:15:43.704Z,33.98
2022-08-10T12:16:43.680Z,32.42
2022-08-10T12:17:44.687Z,32.84
2022-08-10T12:18:43.686Z,34.37
2022-08-10T12:19:59.254Z,33.17
2022-08-10T12:20:44.662Z,33.98
2022-08-10T12:21:43.658Z,34.52
2022-08-10T12:22:43.663Z,34.29
2022-08-10T12:23:43.649Z,34.08
2022-08-10T12:24:43.684Z,33.18
2022-08-10T12:25:57.145Z,34.21
2022-08-10T12:26:44.632Z,33.62
2022-08-10T12:27:43.632Z,34.65
2022-08-10T12:28:51.140Z,33.67
2022-08-10T12:29:44.638Z,32.61
2022-08-10T12:30:43.599Z,32.34
2022-08-10T12:31:43.587Z,33.00
2022-08-10T12:32:44.594Z,32.87
2022-08-10T12:34:01.296Z,33.65
2022-08-10T12:34:48.653Z,34.94
2022-08-10T12:36:01.741Z,34.23
2022-08-10T12:36:45.567Z,33.41
2022-08-10T12:37:43.562Z,33.20
2022-08-10T12:38:44.558Z,33.75
2022-08-10T12:39:43.566Z,32.87
2022-08-10T12:40:43.537Z,32.68
2022-08-10T12:41:45.415Z,32.97
2022-08-10T12:42:43.527Z,33.33
2022-08-10T12:44:07.612Z,33.20
2022-08-10T12:44:44.543Z,35.22
2022-08-10T12:45:43.498Z,34.67
2022-08-10T12:46:43.489Z,34.65
2022-08-10T12:47:43.497Z,34.18
2022-08-10T12:48:43.478Z,34.94
2022-08-10T12:50:13.725Z,34.86
2022-08-10T12:50:44.463Z,35.11
2022-08-10T12:51:46.857Z,34.64
2022-08-10T12:52:44.456Z,35.03
2022-08-10T12:53:43.447Z,35.13